• Join FlightAware (Why Join?)
  • Login
  • US Flag 
02:57PM EDT


 

Airport Tracker/Info


-or-


 

Live Flight TrackerFlight Track Log ✈ RPA4920 ✈ 04-May-2013 ✈ KDEN - KDRO

Flight Track Log - Related Links

Times and Time Zones

All times are in EDT time to prevent confusion due to time zone crossing. See the RPA4920 flight status page for this flight to view local times or setup timezone preferences in your user account.

Time Position Orientation Groundspeed Altitude Reporting Facility
EDT Latitude Longitude Course Direction KTS MPH feet Rate Location/Type
09:37PM 39.7833 -104.6667 203° Southwest 206 237 7,500  Level Denver TRACON
09:38PM 39.7167 -104.6833 191° South 232 267 9,500 1,980 Climbing Denver TRACON
09:39PM 39.6500 -104.7000 191° South 240 276 11,500 1,860 Climbing Denver TRACON
09:40PM 39.5942 -104.7444 212° Southwest 245 282 13,400 1,560 Climbing Denver Center
09:41PM 39.5322 -104.7878 208° Southwest 254 292 14,900 1,380 Climbing Denver Center
09:42PM 39.4587 -104.8600 203° Southwest  Level FlightAware Approximate
09:42PM 39.4686 -104.8317 208° Southwest 256 295 16,300  Level Denver Center
09:43PM 39.3978 -104.8828 209° Southwest 269 310 17,600 1,080 Climbing Denver Center
09:44PM 39.3317 -104.9300 209° Southwest 272 313 18,600 1,020 Climbing Denver Center
09:45PM 39.2650 -104.9775 209° Southwest 276 318 19,800 1,200 Climbing Denver Center
09:46PM 39.1981 -105.0239 208° Southwest 275 316 21,100 1,200 Climbing Denver Center
09:47PM 39.1317 -105.0689 208° Southwest 260 299 22,300 1,020 Climbing Denver Center
09:48PM 39.0661 -105.1058 204° Southwest 258 297 23,200 780 Climbing Denver Center
09:49PM 39.0156 -105.1719 225° Southwest 257 296 24,000 360 Climbing Denver Center
09:50PM 38.9661 -105.2458 229° Southwest 267 307 24,000  Level Denver Center
09:51PM 38.9194 -105.3125 228° Southwest 290 334 24,000  Level Denver Center
09:52PM 38.8497 -105.4114 228° Southwest 307 353 24,000  Level Denver Center
09:53PM 38.7931 -105.4931 228° Southwest 316 364 24,000  Level Denver Center
09:54PM 38.7253 -105.5883 228° Southwest 322 371 24,000  Level Denver Center
09:55PM 38.6675 -105.6717 228° Southwest 325 374 24,000  Level Denver Center
09:56PM 38.5997 -105.7672 228° Southwest 325 374 24,000  Level Denver Center
09:57PM 38.5406 -105.8511 228° Southwest 331 381 24,000  Level Denver Center
09:58PM 38.4806 -105.9353 228° Southwest 333 383 24,000  Level Denver Center
09:59PM 38.4117 -106.0314 228° Southwest 330 380 24,000  Level Denver Center
10:00PM 38.3519 -106.1156 228° Southwest 332 382 24,000  Level Denver Center
10:01PM 38.2908 -106.2017 228° Southwest 330 380 24,000  Level Denver Center
10:02PM 38.2286 -106.2856 227° Southwest 326 375 24,000  Level Denver Center
10:03PM 38.1686 -106.3714 228° Southwest 323 372 24,000  Level Denver Center
10:04PM 38.1083 -106.4542 227° Southwest 319 367 24,000  Level Denver Center
10:05PM 38.0472 -106.5389 228° Southwest 319 367 24,000  Level Denver Center
10:06PM 37.9794 -106.6328 228° Southwest 321 369 24,000  Level Denver Center
10:07PM 37.9211 -106.7114 227° Southwest 319 367 24,000  Level Denver Center
10:08PM 37.8536 -106.8056 228° Southwest 322 371 24,000  Level Denver Center
10:09PM 37.7842 -106.9003 227° Southwest 328 377 24,000  Level Denver Center
10:11PM 37.7158 -106.9925 227° Southwest 323 372 24,000 -420 Level Denver Center
10:12PM 37.6567 -107.0731 227° Southwest 326 375 23,200 -1,320 Descending Denver Center
10:13PM 37.5944 -107.1567 227° Southwest 339 390 21,400 -1,920 Descending Denver Center
10:14PM 37.5244 -107.2542 228° Southwest 336 387 19,300 -1,920 Descending Denver Center
10:15PM 37.4789 -107.3169 228° Southwest 319 367 17,600 -1,860 Descending Denver Center
10:16PM 37.4181 -107.4025 228° Southwest 302 348 15,600 -1,680 Descending Denver Center
10:17PM 37.3650 -107.4828 230° Southwest 279 321 14,300 -1,320 Descending Denver Center
10:18PM 37.3261 -107.5406 230° Southwest 247 284 13,000 -1,620 Descending Denver Center
10:19PM 37.2861 -107.5961 228° Southwest 231 266 11,100 -1,980 Descending Denver Center
10:20PM 37.2408 -107.6611 229° Southwest 224 258 9,000 -1,620 Descending Denver Center
10:21PM 37.2047 -107.7056 224° Southwest 205 236 7,900 -1,080 Descending Denver Center
10:22PM 37.1722 -107.7317 213° Southwest 164 189 6,900 -1,020 Descending Denver Center